sensor_id;sensor_type;location;lat;lon;timestamp;pressure;altitude;pressure_sealevel;temperature
40968;BMP280;57377;45.130;6.038;2023-01-31T00:01:13;93268.13;;;0.80
40968;BMP280;57377;45.130;6.038;2023-01-31T00:03:39;93268.88;;;0.63
40968;BMP280;57377;45.130;6.038;2023-01-31T00:06:10;93268.47;;;0.59
40968;BMP280;57377;45.130;6.038;2023-01-31T00:08:36;93265.75;;;0.78
40968;BMP280;57377;45.130;6.038;2023-01-31T00:11:01;93264.28;;;0.89
40968;BMP280;57377;45.130;6.038;2023-01-31T00:13:27;93259.56;;;0.86
40968;BMP280;57377;45.130;6.038;2023-01-31T00:15:55;93252.31;;;0.83
40968;BMP280;57377;45.130;6.038;2023-01-31T00:18:20;93267.06;;;0.87
40968;BMP280;57377;45.130;6.038;2023-01-31T00:20:46;93253.34;;;0.82
40968;BMP280;57377;45.130;6.038;2023-01-31T00:23:11;93252.50;;;0.39
40968;BMP280;57377;45.130;6.038;2023-01-31T00:25:36;93253.66;;;0.43
40968;BMP280;57377;45.130;6.038;2023-01-31T00:28:02;93251.88;;;0.68
40968;BMP280;57377;45.130;6.038;2023-01-31T00:30:27;93262.53;;;0.65
40968;BMP280;57377;45.130;6.038;2023-01-31T00:32:53;93271.06;;;0.77
40968;BMP280;57377;45.130;6.038;2023-01-31T00:35:18;93275.13;;;0.66
40968;BMP280;57377;45.130;6.038;2023-01-31T00:37:43;93263.66;;;0.69
40968;BMP280;57377;45.130;6.038;2023-01-31T00:40:09;93263.97;;;0.79
40968;BMP280;57377;45.130;6.038;2023-01-31T00:42:35;93265.72;;;0.36
40968;BMP280;57377;45.130;6.038;2023-01-31T00:45:00;93265.28;;;0.39
40968;BMP280;57377;45.130;6.038;2023-01-31T00:47:28;93270.72;;;0.49
40968;BMP280;57377;45.130;6.038;2023-01-31T00:49:53;93274.28;;;0.48
40968;BMP280;57377;45.130;6.038;2023-01-31T00:52:21;93272.53;;;0.18
40968;BMP280;57377;45.130;6.038;2023-01-31T00:54:47;93272.44;;;0.00
40968;BMP280;57377;45.130;6.038;2023-01-31T00:57:12;93264.22;;;0.53
40968;BMP280;57377;45.130;6.038;2023-01-31T00:59:37;93263.78;;;0.56
40968;BMP280;57377;45.130;6.038;2023-01-31T01:02:03;93265.03;;;0.47
40968;BMP280;57377;45.130;6.038;2023-01-31T01:04:30;93277.34;;;0.32
40968;BMP280;57377;45.130;6.038;2023-01-31T01:06:56;93272.88;;;0.52
40968;BMP280;57377;45.130;6.038;2023-01-31T01:09:21;93256.75;;;0.69
40968;BMP280;57377;45.130;6.038;2023-01-31T01:11:47;93271.47;;;0.80
40968;BMP280;57377;45.130;6.038;2023-01-31T01:14:13;93278.09;;;0.88
40968;BMP280;57377;45.130;6.038;2023-01-31T01:16:41;93263.75;;;0.63
40968;BMP280;57377;45.130;6.038;2023-01-31T01:19:32;93264.25;;;0.71
40968;BMP280;57377;45.130;6.038;2023-01-31T01:21:58;93265.13;;;0.34
40968;BMP280;57377;45.130;6.038;2023-01-31T01:24:23;93282.56;;;0.20
40968;BMP280;57377;45.130;6.038;2023-01-31T01:26:49;93269.72;;;0.50
40968;BMP280;57377;45.130;6.038;2023-01-31T01:29:14;93269.53;;;0.52
40968;BMP280;57377;45.130;6.038;2023-01-31T01:34:48;93276.84;;;0.48
40968;BMP280;57377;45.130;6.038;2023-01-31T01:37:14;93263.81;;;0.50
40968;BMP280;57377;45.130;6.038;2023-01-31T01:39:48;93279.19;;;0.50
40968;BMP280;57377;45.130;6.038;2023-01-31T01:42:18;93274.13;;;0.43
40968;BMP280;57377;45.130;6.038;2023-01-31T01:44:54;93273.91;;;0.69
40968;BMP280;57377;45.130;6.038;2023-01-31T01:50:06;93272.97;;;0.39
40968;BMP280;57377;45.130;6.038;2023-01-31T01:52:38;93287.41;;;0.58
40968;BMP280;57377;45.130;6.038;2023-01-31T01:57:55;93277.09;;;0.64
40968;BMP280;57377;45.130;6.038;2023-01-31T02:00:28;93281.09;;;0.61
40968;BMP280;57377;45.130;6.038;2023-01-31T02:02:57;93282.47;;;0.81
40968;BMP280;57377;45.130;6.038;2023-01-31T02:05:30;93274.22;;;0.79
40968;BMP280;57377;45.130;6.038;2023-01-31T02:07:57;93276.94;;;0.84
40968;BMP280;57377;45.130;6.038;2023-01-31T02:10:32;93281.22;;;0.90
40968;BMP280;57377;45.130;6.038;2023-01-31T02:13:01;93283.25;;;0.81
40968;BMP280;57377;45.130;6.038;2023-01-31T02:15:26;93289.41;;;0.50
40968;BMP280;57377;45.130;6.038;2023-01-31T02:17:52;93294.00;;;0.11
40968;BMP280;57377;45.130;6.038;2023-01-31T02:20:35;93286.69;;;0.45
40968;BMP280;57377;45.130;6.038;2023-01-31T02:23:37;93298.25;;;0.30
40968;BMP280;57377;45.130;6.038;2023-01-31T02:29:09;93299.22;;;-0.02
40968;BMP280;57377;45.130;6.038;2023-01-31T02:34:55;93308.72;;;-0.22
40968;BMP280;57377;45.130;6.038;2023-01-31T02:37:53;93305.91;;;-0.07
40968;BMP280;57377;45.130;6.038;2023-01-31T02:40:24;93296.13;;;0.20
40968;BMP280;57377;45.130;6.038;2023-01-31T02:45:49;93296.75;;;0.70
40968;BMP280;57377;45.130;6.038;2023-01-31T02:53:29;93293.06;;;1.08
40968;BMP280;57377;45.130;6.038;2023-01-31T02:58:41;93302.66;;;1.37
40968;BMP280;57377;45.130;6.038;2023-01-31T03:01:12;93306.56;;;0.97
40968;BMP280;57377;45.130;6.038;2023-01-31T03:03:39;93300.66;;;0.73
40968;BMP280;57377;45.130;6.038;2023-01-31T03:08:50;93315.03;;;0.98
40968;BMP280;57377;45.130;6.038;2023-01-31T03:11:49;93316.72;;;1.28
40968;BMP280;57377;45.130;6.038;2023-01-31T03:15:03;93326.03;;;0.50
40968;BMP280;57377;45.130;6.038;2023-01-31T03:17:37;93327.75;;;0.87
40968;BMP280;57377;45.130;6.038;2023-01-31T03:20:18;93336.44;;;1.27
40968;BMP280;57377;45.130;6.038;2023-01-31T03:23:20;93332.63;;;1.54
40968;BMP280;57377;45.130;6.038;2023-01-31T03:25:47;93336.66;;;1.44
40968;BMP280;57377;45.130;6.038;2023-01-31T03:28:17;93343.28;;;1.51
40968;BMP280;57377;45.130;6.038;2023-01-31T03:30:59;93348.06;;;1.48
40968;BMP280;57377;45.130;6.038;2023-01-31T03:33:29;93338.41;;;1.50
40968;BMP280;57377;45.130;6.038;2023-01-31T03:36:01;93345.03;;;1.57
40968;BMP280;57377;45.130;6.038;2023-01-31T03:38:33;93350.63;;;1.65
40968;BMP280;57377;45.130;6.038;2023-01-31T03:41:07;93355.84;;;1.59
40968;BMP280;57377;45.130;6.038;2023-01-31T03:44:02;93350.25;;;1.27
40968;BMP280;57377;45.130;6.038;2023-01-31T03:46:33;93348.16;;;1.17
40968;BMP280;57377;45.130;6.038;2023-01-31T03:49:03;93347.22;;;1.54
40968;BMP280;57377;45.130;6.038;2023-01-31T03:51:34;93360.97;;;1.17
40968;BMP280;57377;45.130;6.038;2023-01-31T03:54:31;93361.56;;;0.95
40968;BMP280;57377;45.130;6.038;2023-01-31T03:57:14;93364.66;;;1.03
40968;BMP280;57377;45.130;6.038;2023-01-31T03:59:42;93370.28;;;1.36
40968;BMP280;57377;45.130;6.038;2023-01-31T04:02:11;93362.91;;;1.63
40968;BMP280;57377;45.130;6.038;2023-01-31T04:04:49;93370.53;;;1.88
40968;BMP280;57377;45.130;6.038;2023-01-31T04:07:25;93367.47;;;1.97
40968;BMP280;57377;45.130;6.038;2023-01-31T04:09:50;93370.03;;;1.61
40968;BMP280;57377;45.130;6.038;2023-01-31T04:12:33;93383.19;;;1.47
40968;BMP280;57377;45.130;6.038;2023-01-31T04:15:13;93381.59;;;1.28
40968;BMP280;57377;45.130;6.038;2023-01-31T04:17:39;93383.88;;;1.12
40968;BMP280;57377;45.130;6.038;2023-01-31T04:20:05;93387.53;;;1.47
40968;BMP280;57377;45.130;6.038;2023-01-31T04:22:31;93393.25;;;1.66
40968;BMP280;57377;45.130;6.038;2023-01-31T04:24:56;93393.78;;;1.92
40968;BMP280;57377;45.130;6.038;2023-01-31T04:27:22;93393.13;;;1.79
40968;BMP280;57377;45.130;6.038;2023-01-31T04:29:47;93397.97;;;1.87
40968;BMP280;57377;45.130;6.038;2023-01-31T04:32:13;93409.50;;;1.96
40968;BMP280;57377;45.130;6.038;2023-01-31T04:34:38;93409.44;;;2.02
40968;BMP280;57377;45.130;6.038;2023-01-31T04:37:04;93408.94;;;1.94
40968;BMP280;57377;45.130;6.038;2023-01-31T04:39:29;93412.31;;;1.04
40968;BMP280;57377;45.130;6.038;2023-01-31T04:41:55;93411.47;;;1.10
40968;BMP280;57377;45.130;6.038;2023-01-31T04:44:46;93418.81;;;1.55
40968;BMP280;57377;45.130;6.038;2023-01-31T04:47:12;93422.22;;;1.49
40968;BMP280;57377;45.130;6.038;2023-01-31T04:49:40;93418.81;;;1.55
40968;BMP280;57377;45.130;6.038;2023-01-31T04:52:08;93430.19;;;0.87
40968;BMP280;57377;45.130;6.038;2023-01-31T04:54:34;93424.56;;;1.02
40968;BMP280;57377;45.130;6.038;2023-01-31T04:57:01;93417.16;;;1.19
40968;BMP280;57377;45.130;6.038;2023-01-31T04:59:40;93420.81;;;1.29
40968;BMP280;57377;45.130;6.038;2023-01-31T05:02:19;93420.38;;;1.32
40968;BMP280;57377;45.130;6.038;2023-01-31T05:04:44;93424.47;;;1.63
40968;BMP280;57377;45.130;6.038;2023-01-31T05:07:32;93435.03;;;1.91
40968;BMP280;57377;45.130;6.038;2023-01-31T05:13:29;93438.75;;;1.95
40968;BMP280;57377;45.130;6.038;2023-01-31T05:22:21;93447.28;;;1.47
40968;BMP280;57377;45.130;6.038;2023-01-31T05:28:21;93444.38;;;1.86
40968;BMP280;57377;45.130;6.038;2023-01-31T05:30:48;93452.16;;;1.73
40968;BMP280;57377;45.130;6.038;2023-01-31T05:33:42;93443.81;;;1.59
40968;BMP280;57377;45.130;6.038;2023-01-31T05:39:19;93458.69;;;2.11
40968;BMP280;57377;45.130;6.038;2023-01-31T05:41:55;93462.13;;;2.22
40968;BMP280;57377;45.130;6.038;2023-01-31T05:44:31;93464.97;;;2.15
40968;BMP280;57377;45.130;6.038;2023-01-31T05:46:56;93466.53;;;1.80
40968;BMP280;57377;45.130;6.038;2023-01-31T05:49:22;93466.44;;;1.87
40968;BMP280;57377;45.130;6.038;2023-01-31T05:51:47;93470.06;;;1.79
40968;BMP280;57377;45.130;6.038;2023-01-31T05:54:13;93470.50;;;1.52
40968;BMP280;57377;45.130;6.038;2023-01-31T05:56:38;93475.59;;;1.59
40968;BMP280;57377;45.130;6.038;2023-01-31T05:59:04;93477.13;;;1.84
40968;BMP280;57377;45.130;6.038;2023-01-31T06:01:29;93482.44;;;2.06
40968;BMP280;57377;45.130;6.038;2023-01-31T06:03:55;93488.94;;;2.26
40968;BMP280;57377;45.130;6.038;2023-01-31T06:06:20;93483.19;;;2.31
40968;BMP280;57377;45.130;6.038;2023-01-31T06:08:46;93489.81;;;2.38
40968;BMP280;57377;45.130;6.038;2023-01-31T06:11:12;93482.81;;;2.27
40968;BMP280;57377;45.130;6.038;2023-01-31T06:13:39;93494.19;;;1.96
40968;BMP280;57377;45.130;6.038;2023-01-31T06:16:08;93492.19;;;1.98
40968;BMP280;57377;45.130;6.038;2023-01-31T06:18:34;93498.00;;;1.87
40968;BMP280;57377;45.130;6.038;2023-01-31T06:20:59;93495.91;;;2.02
40968;BMP280;57377;45.130;6.038;2023-01-31T06:23:36;93501.50;;;2.17
40968;BMP280;57377;45.130;6.038;2023-01-31T06:26:02;93490.69;;;1.91
40968;BMP280;57377;45.130;6.038;2023-01-31T06:28:54;93491.44;;;1.73
40968;BMP280;57377;45.130;6.038;2023-01-31T06:31:20;93498.47;;;1.54
40968;BMP280;57377;45.130;6.038;2023-01-31T06:33:45;93494.56;;;1.51
40968;BMP280;57377;45.130;6.038;2023-01-31T06:36:11;93499.06;;;1.56
40968;BMP280;57377;45.130;6.038;2023-01-31T06:38:36;93508.50;;;1.61
40968;BMP280;57377;45.130;6.038;2023-01-31T06:41:01;93511.16;;;1.49
40968;BMP280;57377;45.130;6.038;2023-01-31T06:43:39;93510.53;;;1.53
40968;BMP280;57377;45.130;6.038;2023-01-31T06:46:04;93507.44;;;1.45
40968;BMP280;57377;45.130;6.038;2023-01-31T06:48:30;93516.06;;;1.50
40968;BMP280;57377;45.130;6.038;2023-01-31T06:50:55;93512.25;;;1.35
40968;BMP280;57377;45.130;6.038;2023-01-31T06:56:40;93523.03;;;1.67
40968;BMP280;57377;45.130;6.038;2023-01-31T06:59:14;93528.28;;;2.03
40968;BMP280;57377;45.130;6.038;2023-01-31T07:01:51;93521.75;;;2.24
40968;BMP280;57377;45.130;6.038;2023-01-31T07:04:18;93529.63;;;2.23
40968;BMP280;57377;45.130;6.038;2023-01-31T07:06:43;93529.28;;;2.02
40968;BMP280;57377;45.130;6.038;2023-01-31T07:09:10;93538.91;;;1.82
40968;BMP280;57377;45.130;6.038;2023-01-31T07:11:36;93541.78;;;2.16
40968;BMP280;57377;45.130;6.038;2023-01-31T07:14:02;93540.63;;;2.30
40968;BMP280;57377;45.130;6.038;2023-01-31T07:16:27;93543.72;;;2.38
40968;BMP280;57377;45.130;6.038;2023-01-31T07:18:53;93539.44;;;2.32
40968;BMP280;57377;45.130;6.038;2023-01-31T07:21:20;93554.34;;;2.42
40968;BMP280;57377;45.130;6.038;2023-01-31T07:23:46;93553.84;;;2.51
40968;BMP280;57377;45.130;6.038;2023-01-31T07:26:11;93552.88;;;2.52
40968;BMP280;57377;45.130;6.038;2023-01-31T07:28:37;93560.09;;;2.20
40968;BMP280;57377;45.130;6.038;2023-01-31T07:31:04;93564.16;;;1.85
40968;BMP280;57377;45.130;6.038;2023-01-31T07:33:32;93579.88;;;1.64
40968;BMP280;57377;45.130;6.038;2023-01-31T07:36:00;93564.25;;;1.96
40968;BMP280;57377;45.130;6.038;2023-01-31T07:38:26;93568.44;;;2.15
40968;BMP280;57377;45.130;6.038;2023-01-31T07:40:51;93561.19;;;2.30
40968;BMP280;57377;45.130;6.038;2023-01-31T07:47:18;93576.88;;;2.40
40968;BMP280;57377;45.130;6.038;2023-01-31T07:49:43;93565.59;;;2.23
40968;BMP280;57377;45.130;6.038;2023-01-31T07:52:09;93584.66;;;2.33
40968;BMP280;57377;45.130;6.038;2023-01-31T07:54:36;93583.88;;;2.33
40968;BMP280;57377;45.130;6.038;2023-01-31T07:57:02;93591.66;;;2.02
40968;BMP280;57377;45.130;6.038;2023-01-31T07:59:27;93594.84;;;1.98
40968;BMP280;57377;45.130;6.038;2023-01-31T08:01:53;93599.69;;;2.30
40968;BMP280;57377;45.130;6.038;2023-01-31T08:04:37;93606.47;;;2.24
40968;BMP280;57377;45.130;6.038;2023-01-31T08:07:02;93610.72;;;1.82
40968;BMP280;57377;45.130;6.038;2023-01-31T08:09:29;93610.91;;;1.57
40968;BMP280;57377;45.130;6.038;2023-01-31T08:11:55;93613.28;;;1.21
40968;BMP280;57377;45.130;6.038;2023-01-31T08:14:20;93623.25;;;0.92
40968;BMP280;57377;45.130;6.038;2023-01-31T08:16:53;93622.13;;;1.25
40968;BMP280;57377;45.130;6.038;2023-01-31T08:19:21;93616.59;;;0.72
40968;BMP280;57377;45.130;6.038;2023-01-31T08:21:50;93634.28;;;0.99
40968;BMP280;57377;45.130;6.038;2023-01-31T08:27:25;93637.53;;;1.56
40968;BMP280;57377;45.130;6.038;2023-01-31T08:29:50;93645.66;;;1.83
40968;BMP280;57377;45.130;6.038;2023-01-31T08:36:10;93642.72;;;2.34
40968;BMP280;57377;45.130;6.038;2023-01-31T08:41:58;93644.97;;;2.66
40968;BMP280;57377;45.130;6.038;2023-01-31T08:47:41;93655.06;;;2.86
40968;BMP280;57377;45.130;6.038;2023-01-31T08:53:10;93644.09;;;2.79
40968;BMP280;57377;45.130;6.038;2023-01-31T08:55:41;93649.56;;;2.64
40968;BMP280;57377;45.130;6.038;2023-01-31T08:58:12;93657.56;;;2.74
40968;BMP280;57377;45.130;6.038;2023-01-31T09:00:37;93659.66;;;2.84
40968;BMP280;57377;45.130;6.038;2023-01-31T09:03:05;93658.59;;;2.91
40968;BMP280;57377;45.130;6.038;2023-01-31T09:05:39;93658.94;;;2.94
40968;BMP280;57377;45.130;6.038;2023-01-31T09:08:15;93654.50;;;2.84
40968;BMP280;57377;45.130;6.038;2023-01-31T09:10:55;93663.84;;;2.78
40968;BMP280;57377;45.130;6.038;2023-01-31T09:17:06;93677.75;;;2.47
40968;BMP280;57377;45.130;6.038;2023-01-31T09:23:16;93686.19;;;2.78
40968;BMP280;57377;45.130;6.038;2023-01-31T09:29:18;93696.50;;;2.71
40968;BMP280;57377;45.130;6.038;2023-01-31T09:31:57;93700.97;;;2.82
40968;BMP280;57377;45.130;6.038;2023-01-31T09:38:22;93703.84;;;3.10
40968;BMP280;57377;45.130;6.038;2023-01-31T09:40:56;93698.06;;;2.96
40968;BMP280;57377;45.130;6.038;2023-01-31T09:46:54;93702.31;;;2.85
40968;BMP280;57377;45.130;6.038;2023-01-31T09:49:26;93698.91;;;2.90
40968;BMP280;57377;45.130;6.038;2023-01-31T09:52:00;93719.84;;;2.94
40968;BMP280;57377;45.130;6.038;2023-01-31T09:54:56;93716.78;;;3.21
40968;BMP280;57377;45.130;6.038;2023-01-31T09:57:53;93707.06;;;3.23
40968;BMP280;57377;45.130;6.038;2023-01-31T10:10:09;93719.69;;;3.07
40968;BMP280;57377;45.130;6.038;2023-01-31T10:15:45;93714.84;;;3.17
40968;BMP280;57377;45.130;6.038;2023-01-31T10:18:28;93706.84;;;3.07
40968;BMP280;57377;45.130;6.038;2023-01-31T10:20:59;93710.56;;;2.93
40968;BMP280;57377;45.130;6.038;2023-01-31T10:23:34;93701.78;;;3.53
40968;BMP280;57377;45.130;6.038;2023-01-31T10:29:52;93690.50;;;3.83
40968;BMP280;57377;45.130;6.038;2023-01-31T10:32:52;93686.72;;;3.86
40968;BMP280;57377;45.130;6.038;2023-01-31T10:35:34;93677.63;;;3.83
40968;BMP280;57377;45.130;6.038;2023-01-31T10:38:25;93672.75;;;3.64
40968;BMP280;57377;45.130;6.038;2023-01-31T10:40:58;93673.56;;;3.47
40968;BMP280;57377;45.130;6.038;2023-01-31T10:43:49;93670.81;;;3.60
40968;BMP280;57377;45.130;6.038;2023-01-31T10:46:17;93664.00;;;3.83
40968;BMP280;57377;45.130;6.038;2023-01-31T10:48:44;93662.63;;;3.81
40968;BMP280;57377;45.130;6.038;2023-01-31T10:54:06;93659.59;;;4.01
40968;BMP280;57377;45.130;6.038;2023-01-31T10:56:41;93645.84;;;4.18
40968;BMP280;57377;45.130;6.038;2023-01-31T10:59:14;93644.34;;;4.00
40968;BMP280;57377;45.130;6.038;2023-01-31T11:01:43;93648.69;;;4.40
40968;BMP280;57377;45.130;6.038;2023-01-31T11:04:41;93633.81;;;4.64
40968;BMP280;57377;45.130;6.038;2023-01-31T11:07:08;93629.44;;;4.65
40968;BMP280;57377;45.130;6.038;2023-01-31T11:09:46;93616.97;;;4.84
40968;BMP280;57377;45.130;6.038;2023-01-31T11:12:12;93614.06;;;4.92
40968;BMP280;57377;45.130;6.038;2023-01-31T11:14:46;93610.31;;;5.11
40968;BMP280;57377;45.130;6.038;2023-01-31T11:17:27;93619.66;;;4.89
40968;BMP280;57377;45.130;6.038;2023-01-31T11:19:54;93619.59;;;4.73
40968;BMP280;57377;45.130;6.038;2023-01-31T11:24:51;93612.88;;;5.34
40968;BMP280;57377;45.130;6.038;2023-01-31T11:27:26;93599.53;;;5.64
40968;BMP280;57377;45.130;6.038;2023-01-31T11:29:54;93595.91;;;5.38
40968;BMP280;57377;45.130;6.038;2023-01-31T11:32:27;93583.22;;;5.75
40968;BMP280;57377;45.130;6.038;2023-01-31T11:35:27;93565.81;;;6.14
40968;BMP280;57377;45.130;6.038;2023-01-31T11:40:39;93561.59;;;6.25
40968;BMP280;57377;45.130;6.038;2023-01-31T11:43:23;93565.50;;;6.43
40968;BMP280;57377;45.130;6.038;2023-01-31T11:46:12;93559.63;;;6.48
40968;BMP280;57377;45.130;6.038;2023-01-31T11:48:42;93558.44;;;5.74
40968;BMP280;57377;45.130;6.038;2023-01-31T11:51:09;93556.59;;;6.18
40968;BMP280;57377;45.130;6.038;2023-01-31T11:53:44;93559.88;;;6.30
40968;BMP280;57377;45.130;6.038;2023-01-31T11:56:17;93562.44;;;5.70
40968;BMP280;57377;45.130;6.038;2023-01-31T11:58:45;93545.13;;;6.14
40968;BMP280;57377;45.130;6.038;2023-01-31T12:03:37;93533.56;;;6.33
40968;BMP280;57377;45.130;6.038;2023-01-31T12:06:08;93525.97;;;6.64
40968;BMP280;57377;45.130;6.038;2023-01-31T12:08:43;93514.47;;;6.93
40968;BMP280;57377;45.130;6.038;2023-01-31T12:13:50;93501.81;;;7.38
40968;BMP280;57377;45.130;6.038;2023-01-31T12:16:21;93498.78;;;7.46
40968;BMP280;57377;45.130;6.038;2023-01-31T12:22:04;93504.50;;;7.74
40968;BMP280;57377;45.130;6.038;2023-01-31T12:29:57;93492.03;;;8.02
40968;BMP280;57377;45.130;6.038;2023-01-31T12:46:19;93446.91;;;10.39
40968;BMP280;57377;45.130;6.038;2023-01-31T12:51:40;93445.88;;;10.40
40968;BMP280;57377;45.130;6.038;2023-01-31T12:54:22;93455.50;;;9.81
40968;BMP280;57377;45.130;6.038;2023-01-31T12:57:22;93443.69;;;9.19
40968;BMP280;57377;45.130;6.038;2023-01-31T13:00:00;93446.28;;;9.24
40968;BMP280;57377;45.130;6.038;2023-01-31T13:02:44;93443.09;;;9.02
40968;BMP280;57377;45.130;6.038;2023-01-31T13:05:40;93450.63;;;8.94
40968;BMP280;57377;45.130;6.038;2023-01-31T13:08:24;93438.19;;;9.06
40968;BMP280;57377;45.130;6.038;2023-01-31T13:13:25;93437.00;;;8.63
40968;BMP280;57377;45.130;6.038;2023-01-31T13:16:31;93434.59;;;8.51
40968;BMP280;57377;45.130;6.038;2023-01-31T13:19:05;93433.81;;;8.10
40968;BMP280;57377;45.130;6.038;2023-01-31T13:21:39;93434.66;;;7.58
40968;BMP280;57377;45.130;6.038;2023-01-31T13:24:34;93437.31;;;7.63
40968;BMP280;57377;45.130;6.038;2023-01-31T13:32:29;93422.06;;;7.98
40968;BMP280;57377;45.130;6.038;2023-01-31T13:35:04;93422.31;;;8.01
40968;BMP280;57377;45.130;6.038;2023-01-31T13:37:36;93417.31;;;7.90
40968;BMP280;57377;45.130;6.038;2023-01-31T13:42:35;93409.31;;;7.60
40968;BMP280;57377;45.130;6.038;2023-01-31T13:45:04;93411.81;;;7.50
40968;BMP280;57377;45.130;6.038;2023-01-31T13:47:39;93415.06;;;6.63
40968;BMP280;57377;45.130;6.038;2023-01-31T13:50:37;93407.69;;;6.97
40968;BMP280;57377;45.130;6.038;2023-01-31T13:53:06;93418.44;;;6.84
40968;BMP280;57377;45.130;6.038;2023-01-31T13:55:37;93419.84;;;6.97
40968;BMP280;57377;45.130;6.038;2023-01-31T13:58:15;93417.22;;;6.71
40968;BMP280;57377;45.130;6.038;2023-01-31T14:00:44;93428.63;;;6.96
40968;BMP280;57377;45.130;6.038;2023-01-31T14:11:00;93411.88;;;7.03
40968;BMP280;57377;45.130;6.038;2023-01-31T14:13:36;93414.47;;;7.03
40968;BMP280;57377;45.130;6.038;2023-01-31T14:16:04;93420.69;;;7.02
40968;BMP280;57377;45.130;6.038;2023-01-31T14:18:48;93422.72;;;7.00
40968;BMP280;57377;45.130;6.038;2023-01-31T14:23:56;93424.59;;;6.83
40968;BMP280;57377;45.130;6.038;2023-01-31T14:26:53;93428.16;;;6.77
40968;BMP280;57377;45.130;6.038;2023-01-31T14:29:20;93422.19;;;6.77
40968;BMP280;57377;45.130;6.038;2023-01-31T14:31:47;93423.84;;;6.62
40968;BMP280;57377;45.130;6.038;2023-01-31T14:34:28;93422.69;;;6.74
40968;BMP280;57377;45.130;6.038;2023-01-31T14:45:18;93429.06;;;6.67
40968;BMP280;57377;45.130;6.038;2023-01-31T14:50:45;93447.28;;;6.18
40968;BMP280;57377;45.130;6.038;2023-01-31T14:56:05;93450.78;;;5.91
40968;BMP280;57377;45.130;6.038;2023-01-31T14:58:34;93452.47;;;6.02
40968;BMP280;57377;45.130;6.038;2023-01-31T15:01:04;93446.53;;;6.38
40968;BMP280;57377;45.130;6.038;2023-01-31T15:03:34;93449.56;;;6.14
40968;BMP280;57377;45.130;6.038;2023-01-31T15:08:37;93463.72;;;6.28
40968;BMP280;57377;45.130;6.038;2023-01-31T15:13:50;93460.25;;;6.39
40968;BMP280;57377;45.130;6.038;2023-01-31T15:16:25;93460.75;;;6.20
40968;BMP280;57377;45.130;6.038;2023-01-31T15:19:20;93466.72;;;5.28
40968;BMP280;57377;45.130;6.038;2023-01-31T15:21:51;93465.19;;;5.15
40968;BMP280;57377;45.130;6.038;2023-01-31T15:24:28;93466.78;;;4.78
40968;BMP280;57377;45.130;6.038;2023-01-31T15:26:56;93467.28;;;5.02
40968;BMP280;57377;45.130;6.038;2023-01-31T15:29:26;93465.06;;;5.22
40968;BMP280;57377;45.130;6.038;2023-01-31T15:31:56;93465.34;;;5.37
40968;BMP280;57377;45.130;6.038;2023-01-31T15:34:31;93459.34;;;5.64
40968;BMP280;57377;45.130;6.038;2023-01-31T15:39:33;93462.78;;;5.69
40968;BMP280;57377;45.130;6.038;2023-01-31T15:42:20;93475.44;;;5.54
40968;BMP280;57377;45.130;6.038;2023-01-31T15:44:46;93482.00;;;5.62
40968;BMP280;57377;45.130;6.038;2023-01-31T15:47:20;93481.38;;;5.39
40968;BMP280;57377;45.130;6.038;2023-01-31T15:49:46;93484.97;;;5.54
40968;BMP280;57377;45.130;6.038;2023-01-31T15:54:37;93496.94;;;5.43
40968;BMP280;57377;45.130;6.038;2023-01-31T15:57:03;93501.88;;;5.17
40968;BMP280;57377;45.130;6.038;2023-01-31T15:59:31;93507.06;;;5.06
40968;BMP280;57377;45.130;6.038;2023-01-31T16:02:01;93518.56;;;4.87
40968;BMP280;57377;45.130;6.038;2023-01-31T16:04:28;93514.47;;;5.14
40968;BMP280;57377;45.130;6.038;2023-01-31T16:06:54;93530.38;;;5.11
40968;BMP280;57377;45.130;6.038;2023-01-31T16:09:30;93533.19;;;5.10
40968;BMP280;57377;45.130;6.038;2023-01-31T16:11:57;93538.53;;;5.19
40968;BMP280;57377;45.130;6.038;2023-01-31T16:14:23;93527.16;;;5.32
40968;BMP280;57377;45.130;6.038;2023-01-31T16:16:53;93523.25;;;5.29
40968;BMP280;57377;45.130;6.038;2023-01-31T16:19:28;93531.22;;;5.28
40968;BMP280;57377;45.130;6.038;2023-01-31T16:21:54;93522.00;;;5.32
40968;BMP280;57377;45.130;6.038;2023-01-31T16:24:21;93523.63;;;5.21
40968;BMP280;57377;45.130;6.038;2023-01-31T16:26:54;93517.13;;;5.19
40968;BMP280;57377;45.130;6.038;2023-01-31T16:29:28;93535.38;;;5.29
40968;BMP280;57377;45.130;6.038;2023-01-31T16:31:57;93527.53;;;5.24
40968;BMP280;57377;45.130;6.038;2023-01-31T16:34:26;93530.25;;;5.17
40968;BMP280;57377;45.130;6.038;2023-01-31T16:37:04;93531.31;;;5.05
40968;BMP280;57377;45.130;6.038;2023-01-31T16:39:44;93536.50;;;4.82
40968;BMP280;57377;45.130;6.038;2023-01-31T16:44:41;93540.16;;;4.59
40968;BMP280;57377;45.130;6.038;2023-01-31T16:52:49;93511.47;;;4.44
40968;BMP280;57377;45.130;6.038;2023-01-31T16:55:18;93522.88;;;4.48
40968;BMP280;57377;45.130;6.038;2023-01-31T16:57:44;93518.75;;;4.36
40968;BMP280;57377;45.130;6.038;2023-01-31T17:02:53;93521.56;;;4.12
40968;BMP280;57377;45.130;6.038;2023-01-31T17:08:00;93532.19;;;4.15
40968;BMP280;57377;45.130;6.038;2023-01-31T17:10:28;93523.69;;;4.14
40968;BMP280;57377;45.130;6.038;2023-01-31T17:13:14;93532.75;;;4.06
40968;BMP280;57377;45.130;6.038;2023-01-31T17:15:41;93524.47;;;4.26
40968;BMP280;57377;45.130;6.038;2023-01-31T17:18:09;93517.19;;;4.12
40968;BMP280;57377;45.130;6.038;2023-01-31T17:20:35;93522.78;;;4.09
40968;BMP280;57377;45.130;6.038;2023-01-31T17:23:00;93529.13;;;3.84
40968;BMP280;57377;45.130;6.038;2023-01-31T17:25:31;93527.25;;;4.02
40968;BMP280;57377;45.130;6.038;2023-01-31T17:27:56;93522.44;;;4.06
40968;BMP280;57377;45.130;6.038;2023-01-31T17:30:22;93525.72;;;4.01
40968;BMP280;57377;45.130;6.038;2023-01-31T17:32:47;93531.28;;;3.87
40968;BMP280;57377;45.130;6.038;2023-01-31T17:37:38;93541.78;;;3.85
40968;BMP280;57377;45.130;6.038;2023-01-31T17:40:04;93542.53;;;3.63
40968;BMP280;57377;45.130;6.038;2023-01-31T17:42:30;93538.34;;;3.91
40968;BMP280;57377;45.130;6.038;2023-01-31T17:44:55;93542.38;;;3.99
40968;BMP280;57377;45.130;6.038;2023-01-31T17:47:20;93538.41;;;3.74
40968;BMP280;57377;45.130;6.038;2023-01-31T17:49:47;93560.03;;;3.84
40968;BMP280;57377;45.130;6.038;2023-01-31T17:52:13;93546.41;;;3.95
40968;BMP280;57377;45.130;6.038;2023-01-31T17:54:38;93546.63;;;3.82
40968;BMP280;57377;45.130;6.038;2023-01-31T17:57:04;93550.84;;;2.89
40968;BMP280;57377;45.130;6.038;2023-01-31T17:59:29;93549.00;;;3.25
40968;BMP280;57377;45.130;6.038;2023-01-31T18:01:55;93549.66;;;3.50
40968;BMP280;57377;45.130;6.038;2023-01-31T18:04:20;93569.56;;;3.25
40968;BMP280;57377;45.130;6.038;2023-01-31T18:06:46;93565.22;;;3.55
40968;BMP280;57377;45.130;6.038;2023-01-31T18:09:11;93564.31;;;3.50